Time;durP1;ratioP1;P1;durP2;ratioP2;P2;SDS_P1;SDS_P2;PMS_P1;PMS_P2;Temp;Humidity;BMP_temperature;BMP_pressure;BME280_temperature;BME280_humidity;BME280_pressure;Samples;Min_cycle;Max_cycle;Signal;HPM_P1;HPM_P2
2021/09/18 00:00:41;;;;;;;;;;;15.00;99.90;;;;;;5920215;23;25037;-71
2021/09/18 00:03:09;;;;;;;;;;;15.00;99.90;;;;;;5917838;23;25053;-72
2021/09/18 00:05:34;;;;;;;;;;;15.00;99.90;;;;;;5942409;23;25043;-71
2021/09/18 00:07:59;;;;;;;;;;;15.00;99.90;;;;;;5945165;23;25059;-71
2021/09/18 00:10:27;;;;;;;;;;;15.00;99.90;;;;;;5944709;23;25044;-72
2021/09/18 00:12:53;;;;;;;;;;;15.00;99.90;;;;;;5945325;23;25058;-71
2021/09/18 00:15:18;;;;;;;;;;;14.90;99.90;;;;;;5943224;23;25060;-71
2021/09/18 00:17:44;;;;;;;;;;;15.00;99.90;;;;;;5945264;23;20446;-70
2021/09/18 00:20:11;;;;;;;;;;;15.00;99.90;;;;;;5943437;23;25081;-71
2021/09/18 00:22:39;;;;;;;;;;;15.00;99.90;;;;;;5943242;23;20238;-71
2021/09/18 00:25:08;;;;;;;;;;;15.00;99.90;;;;;;5944361;23;25044;-71
2021/09/18 00:27:33;;;;;;;;;;;15.00;99.90;;;;;;5940081;23;20406;-71
2021/09/18 00:30:01;;;;;;;;;;;15.00;99.90;;;;;;5942837;23;25103;-71
2021/09/18 00:32:26;;;;;;;;;;;15.00;99.90;;;;;;5943033;23;25052;-70
2021/09/18 00:34:52;;;;;;;;;;;15.00;99.90;;;;;;5943705;23;20204;-71
2021/09/18 00:37:17;;;;;;;;;;;15.00;99.90;;;;;;5942549;23;20485;-71
2021/09/18 00:39:43;;;;;;;;;;;15.00;99.90;;;;;;5914509;23;25054;-71
2021/09/18 00:42:15;;;;;;;;;;;15.00;99.90;;;;;;5939968;23;25055;-71
2021/09/18 00:44:41;;;;;;;;;;;15.00;99.90;;;;;;5940809;23;20112;-71
2021/09/18 00:47:06;;;;;;;;;;;15.00;99.90;;;;;;5940128;23;20193;-71
2021/09/18 00:49:39;;;;;;;;;;;15.00;99.90;;;;;;5916171;23;25043;-71
2021/09/18 00:52:05;;;;;;;;;;;15.00;99.90;;;;;;5940447;23;25066;-72
2021/09/18 00:54:30;;;;;;;;;;;15.00;99.90;;;;;;5941735;23;20568;-71
2021/09/18 00:56:58;;;;;;;;;;;15.00;99.90;;;;;;5941684;23;25084;-73
2021/09/18 00:59:23;;;;;;;;;;;15.00;99.90;;;;;;5940294;23;20676;-70
2021/09/18 01:01:49;;;;;;;;;;;15.00;99.90;;;;;;5940002;23;25048;-71
2021/09/18 01:04:17;;;;;;;;;;;15.00;99.90;;;;;;5941447;23;20136;-72
2021/09/18 01:06:42;;;;;;;;;;;15.00;99.90;;;;;;5941388;23;20344;-71
2021/09/18 01:09:08;;;;;;;;;;;15.00;99.90;;;;;;5916383;23;25083;-71
2021/09/18 01:11:36;;;;;;;;;;;15.00;99.90;;;;;;5939698;23;25088;-71
2021/09/18 01:14:01;;;;;;;;;;;15.00;99.90;;;;;;5939837;23;25097;-71
2021/09/18 01:16:27;;;;;;;;;;;15.00;99.90;;;;;;5939654;23;25140;-71
2021/09/18 01:18:52;;;;;;;;;;;15.00;99.90;;;;;;5940388;23;25056;-72
2021/09/18 01:21:19;;;;;;;;;;;15.00;99.90;;;;;;5940238;23;20120;-72
2021/09/18 01:23:45;;;;;;;;;;;15.10;99.90;;;;;;5953231;23;25094;-71
2021/09/18 01:26:10;;;;;;;;;;;15.10;99.90;;;;;;5958324;23;20136;-71
2021/09/18 01:28:39;;;;;;;;;;;15.00;99.90;;;;;;5917510;23;20344;-72
2021/09/18 01:31:07;;;;;;;;;;;15.00;99.90;;;;;;5942306;23;25128;-72
2021/09/18 01:33:32;;;;;;;;;;;15.00;99.90;;;;;;5942857;23;25048;-72
2021/09/18 01:35:58;;;;;;;;;;;15.00;99.90;;;;;;5936832;23;20115;-72
2021/09/18 01:38:23;;;;;;;;;;;15.00;99.90;;;;;;5948271;23;20160;-71
2021/09/18 01:40:51;;;;;;;;;;;15.00;99.90;;;;;;5919208;23;20131;-72
2021/09/18 01:43:18;;;;;;;;;;;15.00;99.90;;;;;;5944121;23;25133;-71
2021/09/18 01:45:43;;;;;;;;;;;15.00;99.90;;;;;;5915305;23;25062;-72
2021/09/18 01:48:12;;;;;;;;;;;15.00;99.90;;;;;;5940161;23;25092;-72
2021/09/18 01:50:47;;;;;;;;;;;15.00;99.90;;;;;;5942842;23;20106;-72
2021/09/18 01:53:16;;;;;;;;;;;15.00;99.90;;;;;;5940122;23;20617;-72
2021/09/18 01:55:41;;;;;;;;;;;15.00;99.90;;;;;;5939611;23;25148;-72
2021/09/18 01:58:13;;;;;;;;;;;15.00;99.90;;;;;;5941437;23;20186;-72
2021/09/18 02:00:40;;;;;;;;;;;15.00;99.90;;;;;;5915353;23;24920;-71
2021/09/18 02:03:06;;;;;;;;;;;15.00;99.90;;;;;;5939962;23;25072;-72
2021/09/18 02:05:31;;;;;;;;;;;15.00;99.90;;;;;;5940144;23;20180;-72
2021/09/18 02:08:00;;;;;;;;;;;15.00;99.90;;;;;;5938779;23;25061;-72
2021/09/18 02:10:27;;;;;;;;;;;15.00;99.90;;;;;;5941808;23;20143;-72
2021/09/18 02:12:53;;;;;;;;;;;15.00;99.90;;;;;;5941913;23;20192;-72
2021/09/18 02:15:21;;;;;;;;;;;15.00;99.90;;;;;;5938313;23;25061;-72
2021/09/18 02:17:49;;;;;;;;;;;15.00;99.90;;;;;;5941188;23;20139;-72
2021/09/18 02:20:16;;;;;;;;;;;15.00;99.90;;;;;;5915782;23;25047;-71
2021/09/18 02:22:44;;;;;;;;;;;15.00;99.90;;;;;;5940428;23;20104;-72
2021/09/18 02:25:10;;;;;;;;;;;15.00;99.90;;;;;;5941667;23;20572;-72
2021/09/18 02:27:38;;;;;;;;;;;15.00;99.90;;;;;;5940640;23;20169;-72
2021/09/18 02:30:07;;;;;;;;;;;15.00;99.90;;;;;;5942303;23;20115;-72
2021/09/18 02:32:35;;;;;;;;;;;14.90;99.90;;;;;;5916634;23;25075;-72
2021/09/18 02:35:07;;;;;;;;;;;14.90;99.90;;;;;;5939143;23;25096;-71
2021/09/18 02:37:44;;;;;;;;;;;14.90;99.90;;;;;;5944754;23;20446;-72
2021/09/18 02:40:11;;;;;;;;;;;15.00;99.90;;;;;;5917484;23;25114;-72
2021/09/18 02:42:38;;;;;;;;;;;14.90;99.90;;;;;;5940269;23;25081;-72
2021/09/18 02:45:04;;;;;;;;;;;14.90;99.90;;;;;;5941282;23;20090;-72
2021/09/18 02:47:29;;;;;;;;;;;14.90;99.90;;;;;;5937334;23;25104;-71
2021/09/18 02:49:55;;;;;;;;;;;14.90;99.90;;;;;;5941096;23;25039;-72
2021/09/18 02:52:20;;;;;;;;;;;14.90;99.90;;;;;;5941830;23;20170;-72
2021/09/18 02:54:46;;;;;;;;;;;14.90;99.90;;;;;;5940433;23;25061;-72
2021/09/18 02:57:11;;;;;;;;;;;14.90;99.90;;;;;;5939710;23;25094;-72
2021/09/18 02:59:39;;;;;;;;;;;14.90;99.90;;;;;;5940263;23;20181;-72
2021/09/18 03:02:04;;;;;;;;;;;14.90;99.90;;;;;;5940485;23;25104;-71
2021/09/18 03:04:30;;;;;;;;;;;14.90;99.90;;;;;;5939506;23;25113;-72
2021/09/18 03:06:58;;;;;;;;;;;14.90;99.90;;;;;;5939478;23;25065;-72
2021/09/18 03:09:23;;;;;;;;;;;14.90;99.90;;;;;;5945614;23;20158;-72
2021/09/18 03:11:49;;;;;;;;;;;14.90;99.90;;;;;;5950899;23;25081;-72
2021/09/18 03:14:17;;;;;;;;;;;15.00;99.90;;;;;;5940056;23;20554;-72
2021/09/18 03:16:42;;;;;;;;;;;14.90;99.90;;;;;;5937474;23;20130;-72
2021/09/18 03:19:08;;;;;;;;;;;15.00;99.90;;;;;;5941098;23;25077;-72
2021/09/18 03:21:36;;;;;;;;;;;15.00;99.90;;;;;;5941017;23;20546;-72
2021/09/18 03:24:02;;;;;;;;;;;14.90;99.90;;;;;;5942731;23;25144;-72
2021/09/18 03:26:27;;;;;;;;;;;14.90;99.90;;;;;;5914822;23;25108;-72
2021/09/18 03:28:55;;;;;;;;;;;15.00;99.90;;;;;;5939522;23;25082;-72
2021/09/18 03:31:23;;;;;;;;;;;14.90;99.90;;;;;;5915607;23;25035;-71
2021/09/18 03:33:49;;;;;;;;;;;15.00;99.90;;;;;;5939870;23;20182;-72
2021/09/18 03:36:17;;;;;;;;;;;15.00;99.90;;;;;;5940119;23;25054;-72
2021/09/18 03:38:43;;;;;;;;;;;15.00;99.90;;;;;;5918688;23;25054;-72
2021/09/18 03:41:11;;;;;;;;;;;15.00;99.90;;;;;;5941717;23;25069;-72
2021/09/18 03:43:36;;;;;;;;;;;15.00;99.90;;;;;;5942052;23;25143;-72
2021/09/18 03:46:02;;;;;;;;;;;15.00;99.90;;;;;;5939997;23;20310;-72
2021/09/18 03:48:27;;;;;;;;;;;15.00;99.90;;;;;;5941159;23;25054;-72
2021/09/18 03:50:53;;;;;;;;;;;15.00;99.90;;;;;;5942175;23;20241;-72
2021/09/18 03:53:21;;;;;;;;;;;15.00;99.90;;;;;;5942650;23;20106;-71
2021/09/18 03:55:47;;;;;;;;;;;15.00;99.90;;;;;;5941999;23;25054;-74
2021/09/18 03:58:14;;;;;;;;;;;15.00;99.90;;;;;;5942008;23;20516;-72
2021/09/18 04:00:40;;;;;;;;;;;15.00;99.90;;;;;;5941132;23;20135;-72
2021/09/18 04:03:05;;;;;;;;;;;15.00;99.90;;;;;;5945733;23;20261;-72
2021/09/18 04:05:31;;;;;;;;;;;15.00;99.90;;;;;;5942678;23;25085;-72
2021/09/18 04:07:56;;;;;;;;;;;15.00;99.90;;;;;;5943041;23;25109;-71
2021/09/18 04:10:22;;;;;;;;;;;15.00;99.90;;;;;;5957904;23;20152;-72
2021/09/18 04:12:50;;;;;;;;;;;15.00;99.90;;;;;;5935125;23;25046;-72
2021/09/18 04:15:17;;;;;;;;;;;15.00;99.90;;;;;;5942794;23;20110;-72
2021/09/18 04:17:43;;;;;;;;;;;15.00;99.90;;;;;;5942558;23;20152;-72
2021/09/18 04:20:10;;;;;;;;;;;15.00;99.90;;;;;;5939734;23;25042;-72
2021/09/18 04:22:35;;;;;;;;;;;15.00;99.90;;;;;;5916507;23;20478;-72
2021/09/18 04:25:00;;;;;;;;;;;15.00;99.90;;;;;;5940853;23;20153;-72
2021/09/18 04:27:26;;;;;;;;;;;15.10;99.90;;;;;;5939028;23;25087;-72
2021/09/18 04:29:54;;;;;;;;;;;15.10;99.90;;;;;;5941766;23;25045;-72
2021/09/18 04:32:19;;;;;;;;;;;15.00;99.90;;;;;;5942930;23;20000;-72
2021/09/18 04:34:47;;;;;;;;;;;15.10;99.90;;;;;;5942759;23;20106;-72
2021/09/18 04:37:13;;;;;;;;;;;15.10;99.90;;;;;;5942053;23;25091;-72
2021/09/18 04:39:38;;;;;;;;;;;15.10;99.90;;;;;;5944096;23;19980;-72
2021/09/18 04:42:04;;;;;;;;;;;15.00;99.90;;;;;;5919187;23;20624;-72
2021/09/18 04:44:29;;;;;;;;;;;15.00;99.90;;;;;;5942946;23;20056;-72
2021/09/18 04:46:57;;;;;;;;;;;15.00;99.90;;;;;;5940439;23;20810;-72
2021/09/18 04:49:22;;;;;;;;;;;15.10;99.90;;;;;;5914519;23;20095;-72
2021/09/18 04:51:48;;;;;;;;;;;15.10;99.90;;;;;;5942191;23;25040;-72
2021/09/18 04:54:13;;;;;;;;;;;15.10;99.90;;;;;;5942181;23;25078;-72
2021/09/18 04:56:39;;;;;;;;;;;15.10;99.90;;;;;;5941230;23;20657;-72
2021/09/18 04:59:04;;;;;;;;;;;15.10;99.90;;;;;;5917744;23;20106;-72
2021/09/18 05:01:30;;;;;;;;;;;15.10;99.90;;;;;;5943667;23;20152;-72
2021/09/18 05:03:57;;;;;;;;;;;15.10;99.90;;;;;;5942513;23;25043;-71
2021/09/18 05:06:23;;;;;;;;;;;15.10;99.90;;;;;;5954104;23;20011;-72
2021/09/18 05:08:48;;;;;;;;;;;15.10;99.90;;;;;;5947526;23;20192;-72
2021/09/18 05:11:14;;;;;;;;;;;15.10;99.90;;;;;;5951088;23;20202;-72
2021/09/18 05:13:39;;;;;;;;;;;15.10;99.90;;;;;;5950162;23;20447;-72
2021/09/18 05:16:04;;;;;;;;;;;15.10;99.90;;;;;;5924523;23;20897;-72
2021/09/18 05:18:30;;;;;;;;;;;15.20;99.90;;;;;;5925762;23;20125;-71
2021/09/18 05:20:56;;;;;;;;;;;15.20;99.90;;;;;;5949837;23;20088;-72
2021/09/18 05:23:21;;;;;;;;;;;15.20;99.90;;;;;;5949659;23;19964;-72
2021/09/18 05:25:47;;;;;;;;;;;15.20;99.90;;;;;;5947898;23;20002;-72
2021/09/18 05:28:15;;;;;;;;;;;15.30;99.90;;;;;;5925222;23;20049;-71
2021/09/18 05:30:40;;;;;;;;;;;15.30;99.90;;;;;;5950413;23;19990;-72
2021/09/18 05:33:06;;;;;;;;;;;15.30;99.90;;;;;;5926471;23;20557;-71
2021/09/18 05:35:31;;;;;;;;;;;15.30;99.90;;;;;;5945622;23;19977;-72
2021/09/18 05:37:59;;;;;;;;;;;15.30;99.90;;;;;;5947988;23;20326;-72
2021/09/18 05:40:27;;;;;;;;;;;15.30;99.90;;;;;;5947848;23;20076;-71
2021/09/18 05:42:54;;;;;;;;;;;15.30;99.90;;;;;;5948017;23;19976;-72
2021/09/18 05:45:20;;;;;;;;;;;15.30;99.90;;;;;;5947405;23;20304;-72
2021/09/18 05:47:48;;;;;;;;;;;15.30;99.90;;;;;;5946542;23;20136;-72
2021/09/18 05:50:14;;;;;;;;;;;15.30;99.90;;;;;;5945525;23;20078;-72
2021/09/18 05:52:39;;;;;;;;;;;15.30;99.90;;;;;;5921961;23;20089;-72
2021/09/18 05:55:05;;;;;;;;;;;15.30;99.90;;;;;;5946478;23;20111;-72
2021/09/18 05:57:30;;;;;;;;;;;15.30;99.90;;;;;;5946697;23;20081;-72
2021/09/18 05:59:56;;;;;;;;;;;15.40;99.90;;;;;;5950324;23;20457;-72
2021/09/18 06:02:23;;;;;;;;;;;15.40;99.90;;;;;;5951110;23;20092;-72
2021/09/18 06:04:48;;;;;;;;;;;15.40;99.90;;;;;;5946117;23;20082;-71
2021/09/18 06:07:14;;;;;;;;;;;15.40;99.90;;;;;;5947959;23;20547;-72
2021/09/18 06:09:39;;;;;;;;;;;15.40;99.90;;;;;;5952345;23;20426;-71
2021/09/18 06:12:05;;;;;;;;;;;15.40;99.90;;;;;;5951830;23;20069;-72
2021/09/18 06:14:30;;;;;;;;;;;15.50;99.90;;;;;;5950104;23;20123;-72
2021/09/18 06:16:56;;;;;;;;;;;15.50;99.90;;;;;;5948764;23;19974;-72
2021/09/18 06:19:21;;;;;;;;;;;15.50;99.90;;;;;;5952548;23;20049;-72
2021/09/18 06:21:47;;;;;;;;;;;15.50;99.90;;;;;;5950021;23;20612;-72
2021/09/18 06:24:13;;;;;;;;;;;15.50;99.90;;;;;;5952721;23;20067;-71
2021/09/18 06:26:39;;;;;;;;;;;15.50;99.90;;;;;;5949933;23;20086;-71
2021/09/18 06:29:05;;;;;;;;;;;15.50;99.90;;;;;;5926713;23;20494;-71
2021/09/18 06:31:30;;;;;;;;;;;15.60;99.90;;;;;;5947393;23;20065;-71
2021/09/18 06:33:56;;;;;;;;;;;15.60;99.90;;;;;;5951437;23;20084;-71
2021/09/18 06:36:21;;;;;;;;;;;15.60;99.90;;;;;;5950269;23;20141;-71
2021/09/18 06:38:47;;;;;;;;;;;15.60;99.90;;;;;;5952372;23;20055;-71
2021/09/18 06:41:12;;;;;;;;;;;15.60;99.90;;;;;;5950368;23;20158;-71
2021/09/18 06:43:38;;;;;;;;;;;15.70;99.90;;;;;;5951590;23;20244;-71
2021/09/18 06:46:03;;;;;;;;;;;15.70;99.90;;;;;;5951602;23;19984;-71
2021/09/18 06:48:29;;;;;;;;;;;15.70;99.90;;;;;;5951481;23;20063;-71
2021/09/18 06:50:54;;;;;;;;;;;15.80;99.90;;;;;;5948389;23;20087;-72
2021/09/18 06:53:20;;;;;;;;;;;15.80;99.90;;;;;;5948035;23;20550;-71
2021/09/18 06:55:48;;;;;;;;;;;15.90;99.90;;;;;;5949446;23;20202;-71
2021/09/18 06:58:14;;;;;;;;;;;15.90;99.90;;;;;;5973214;23;19972;-74
2021/09/18 07:00:40;;;;;;;;;;;16.00;99.90;;;;;;5941956;23;19985;-72
2021/09/18 07:03:08;;;;;;;;;;;16.00;99.90;;;;;;5950119;23;20078;-72
2021/09/18 07:05:34;;;;;;;;;;;16.10;99.90;;;;;;5948727;23;20121;-71
2021/09/18 07:07:59;;;;;;;;;;;16.10;99.90;;;;;;5950835;23;20536;-71
2021/09/18 07:10:25;;;;;;;;;;;16.20;99.90;;;;;;5951618;23;20522;-71
2021/09/18 07:12:50;;;;;;;;;;;16.20;99.90;;;;;;5925063;23;20100;-71
2021/09/18 07:15:16;;;;;;;;;;;16.20;99.90;;;;;;5946800;23;20108;-71
2021/09/18 07:17:41;;;;;;;;;;;16.30;99.90;;;;;;5949069;23;20060;-71
2021/09/18 07:20:07;;;;;;;;;;;16.30;99.90;;;;;;5952494;23;20122;-71
2021/09/18 07:22:33;;;;;;;;;;;16.30;99.90;;;;;;5951998;23;20111;-71
2021/09/18 07:24:58;;;;;;;;;;;16.40;99.90;;;;;;5951662;23;20146;-72
2021/09/18 07:27:27;;;;;;;;;;;16.40;99.90;;;;;;5948398;23;20083;-71
2021/09/18 07:29:52;;;;;;;;;;;16.50;99.90;;;;;;5951384;23;20084;-72
2021/09/18 07:32:20;;;;;;;;;;;16.50;99.90;;;;;;5950724;23;20492;-72
2021/09/18 07:34:46;;;;;;;;;;;16.50;99.90;;;;;;5950704;23;20108;-71
2021/09/18 07:37:13;;;;;;;;;;;16.60;99.90;;;;;;5942008;23;20496;-71
2021/09/18 07:39:39;;;;;;;;;;;16.60;99.90;;;;;;5949164;23;19968;-72
2021/09/18 07:42:07;;;;;;;;;;;16.70;99.90;;;;;;5926512;23;20080;-74
2021/09/18 07:44:32;;;;;;;;;;;16.70;99.90;;;;;;5949698;23;20506;-74
2021/09/18 07:46:58;;;;;;;;;;;16.80;99.90;;;;;;5945456;23;20100;-74
2021/09/18 07:49:23;;;;;;;;;;;16.80;99.90;;;;;;5947294;23;20119;-72
2021/09/18 07:51:48;;;;;;;;;;;16.90;99.90;;;;;;5940154;23;20533;-73
2021/09/18 07:54:14;;;;;;;;;;;16.90;99.90;;;;;;5946650;23;25086;-73
2021/09/18 07:56:39;;;;;;;;;;;17.00;99.90;;;;;;5947226;23;19996;-73
2021/09/18 07:59:05;;;;;;;;;;;17.10;99.90;;;;;;5945583;23;20580;-73
2021/09/18 08:01:32;;;;;;;;;;;17.10;99.90;;;;;;5947107;23;20129;-72
2021/09/18 08:04:02;;;;;;;;;;;17.20;99.90;;;;;;5945617;23;20076;-72
2021/09/18 08:06:31;;;;;;;;;;;17.20;99.90;;;;;;5940528;23;20380;-72
2021/09/18 08:08:56;;;;;;;;;;;17.30;99.90;;;;;;5940757;23;20225;-71
2021/09/18 08:11:23;;;;;;;;;;;17.40;99.90;;;;;;5943927;23;20522;-71
2021/09/18 08:13:52;;;;;;;;;;;17.40;99.90;;;;;;5943798;23;20502;-72
2021/09/18 08:16:18;;;;;;;;;;;17.40;99.90;;;;;;5943867;23;20411;-71
2021/09/18 08:18:44;;;;;;;;;;;17.50;99.90;;;;;;5947690;23;20075;-71
2021/09/18 08:21:11;;;;;;;;;;;17.60;99.90;;;;;;5946136;23;20103;-72
2021/09/18 08:23:37;;;;;;;;;;;17.70;99.90;;;;;;5949688;23;20592;-71
2021/09/18 08:26:03;;;;;;;;;;;17.70;99.90;;;;;;5947546;23;20085;-71
2021/09/18 08:28:28;;;;;;;;;;;17.70;99.90;;;;;;5948630;23;25044;-74
2021/09/18 08:30:54;;;;;;;;;;;17.80;99.90;;;;;;5948068;23;20357;-74
2021/09/18 08:33:19;;;;;;;;;;;17.90;99.90;;;;;;5925142;23;20546;-73
2021/09/18 08:35:45;;;;;;;;;;;17.90;99.90;;;;;;5948877;23;20890;-74
2021/09/18 08:38:10;;;;;;;;;;;18.00;99.90;;;;;;5951279;23;25063;-74
2021/09/18 08:40:37;;;;;;;;;;;18.10;99.90;;;;;;5950464;23;19962;-74
2021/09/18 08:43:03;;;;;;;;;;;18.10;99.90;;;;;;5943720;23;20253;-73
2021/09/18 08:45:29;;;;;;;;;;;18.20;99.90;;;;;;5944855;23;20517;-74
2021/09/18 08:47:54;;;;;;;;;;;18.20;99.90;;;;;;5944342;23;20178;-73
2021/09/18 08:50:21;;;;;;;;;;;18.30;99.90;;;;;;5945355;23;20122;-74
2021/09/18 08:52:46;;;;;;;;;;;18.30;99.90;;;;;;5943815;23;20097;-74
2021/09/18 08:55:12;;;;;;;;;;;18.40;99.90;;;;;;5944790;23;20127;-74
2021/09/18 08:57:41;;;;;;;;;;;18.40;99.90;;;;;;5944279;23;20192;-74
2021/09/18 09:00:10;;;;;;;;;;;18.50;99.90;;;;;;5945304;23;20130;-75
2021/09/18 09:02:38;;;;;;;;;;;18.50;99.90;;;;;;5945021;23;25111;-74
2021/09/18 09:05:05;;;;;;;;;;;18.50;99.90;;;;;;5946999;23;20353;-72
2021/09/18 09:07:30;;;;;;;;;;;18.50;99.90;;;;;;5946244;23;20087;-71
2021/09/18 09:09:57;;;;;;;;;;;18.50;99.90;;;;;;5947300;23;20266;-71
2021/09/18 09:12:23;;;;;;;;;;;18.50;99.90;;;;;;5949611;23;20140;-72
2021/09/18 09:14:49;;;;;;;;;;;18.50;99.90;;;;;;5922010;23;20135;-71
2021/09/18 09:17:21;;;;;;;;;;;18.50;99.90;;;;;;5921066;23;20082;-73
2021/09/18 09:19:51;;;;;;;;;;;18.50;99.90;;;;;;5945430;23;20179;-73
2021/09/18 09:22:34;;;;;;;;;;;18.50;99.90;;;;;;5942203;23;20478;-73
2021/09/18 09:24:59;;;;;;;;;;;18.50;99.90;;;;;;5945278;23;20091;-73
2021/09/18 09:27:25;;;;;;;;;;;18.40;99.90;;;;;;5920489;23;20136;-73
2021/09/18 09:29:53;;;;;;;;;;;18.40;99.90;;;;;;5945257;23;20087;-73
2021/09/18 09:32:25;;;;;;;;;;;18.30;99.90;;;;;;5946803;23;20398;-74
2021/09/18 09:34:54;;;;;;;;;;;18.30;99.90;;;;;;5941685;23;25067;-73
2021/09/18 09:37:20;;;;;;;;;;;18.40;99.90;;;;;;5940442;23;19980;-73
2021/09/18 09:40:05;;;;;;;;;;;18.40;99.90;;;;;;5940438;23;20078;-74
2021/09/18 09:42:32;;;;;;;;;;;18.40;99.90;;;;;;5943799;23;20102;-73
2021/09/18 09:45:18;;;;;;;;;;;18.40;99.90;;;;;;5943667;23;20088;-73
2021/09/18 09:47:44;;;;;;;;;;;18.50;99.90;;;;;;5942832;23;20117;-73
2021/09/18 09:50:10;;;;;;;;;;;18.50;99.90;;;;;;5958794;23;25124;-73
2021/09/18 09:52:36;;;;;;;;;;;18.60;99.90;;;;;;5933355;23;20096;-73
2021/09/18 09:55:09;;;;;;;;;;;18.60;99.90;;;;;;5946271;23;20075;-73
2021/09/18 09:57:35;;;;;;;;;;;18.60;99.90;;;;;;5945540;23;20167;-73
2021/09/18 10:00:03;;;;;;;;;;;18.60;99.90;;;;;;5918325;23;20082;-72
2021/09/18 10:02:28;;;;;;;;;;;18.70;99.90;;;;;;5941187;23;20170;-72
2021/09/18 10:04:53;;;;;;;;;;;18.80;99.90;;;;;;5917839;23;20022;-72
2021/09/18 10:07:19;;;;;;;;;;;18.90;99.90;;;;;;5914572;23;20224;-72
2021/09/18 10:09:45;;;;;;;;;;;18.90;99.90;;;;;;5919422;23;19972;-72
2021/09/18 10:12:11;;;;;;;;;;;18.90;99.90;;;;;;5942435;23;20145;-72
2021/09/18 10:14:39;;;;;;;;;;;18.90;99.90;;;;;;5942303;23;20091;-72
2021/09/18 10:17:05;;;;;;;;;;;19.00;99.90;;;;;;5943650;23;20108;-72
2021/09/18 10:24:51;;;;;;;;;;;19.10;99.90;;;;;;5944825;23;20514;-73
2021/09/18 10:27:18;;;;;;;;;;;19.10;99.90;;;;;;5942685;23;20142;-74
2021/09/18 10:29:44;;;;;;;;;;;19.10;99.90;;;;;;5944553;23;20016;-74
2021/09/18 10:32:10;;;;;;;;;;;19.20;99.90;;;;;;5945747;23;20127;-74
2021/09/18 10:34:35;;;;;;;;;;;19.20;99.90;;;;;;5943174;23;20114;-74
2021/09/18 10:37:01;;;;;;;;;;;19.20;99.90;;;;;;5917379;23;20199;-73
2021/09/18 10:39:26;;;;;;;;;;;19.20;99.90;;;;;;5920109;23;20238;-75
2021/09/18 10:41:53;;;;;;;;;;;19.20;99.90;;;;;;5918556;23;20073;-74
2021/09/18 10:44:20;;;;;;;;;;;19.30;99.90;;;;;;5948123;23;20515;-75
2021/09/18 10:46:50;;;;;;;;;;;19.30;99.90;;;;;;5922746;23;25049;-73
2021/09/18 10:49:31;;;;;;;;;;;19.30;99.90;;;;;;5944537;23;20034;-75
2021/09/18 10:52:16;;;;;;;;;;;19.30;99.90;;;;;;5945428;23;20396;-76
2021/09/18 10:55:08;;;;;;;;;;;19.30;99.90;;;;;;5919772;23;20143;-76
2021/09/18 10:57:42;;;;;;;;;;;19.20;99.90;;;;;;5930143;23;20615;-75
2021/09/18 11:00:22;;;;;;;;;;;19.10;99.90;;;;;;5945383;23;20460;-76
2021/09/18 11:02:51;;;;;;;;;;;19.00;99.90;;;;;;5946298;23;25109;-74
2021/09/18 11:05:22;;;;;;;;;;;19.00;99.90;;;;;;5948175;23;19974;-74
2021/09/18 11:07:58;;;;;;;;;;;19.00;99.90;;;;;;5924330;23;20083;-75
2021/09/18 11:10:23;;;;;;;;;;;18.90;99.90;;;;;;5948219;23;19966;-76
2021/09/18 11:13:07;;;;;;;;;;;18.90;99.90;;;;;;5948198;23;20406;-73
2021/09/18 11:15:36;;;;;;;;;;;18.90;99.90;;;;;;5952192;23;20104;-74
2021/09/18 11:18:05;;;;;;;;;;;18.90;99.90;;;;;;5952639;23;20480;-75
2021/09/18 11:20:34;;;;;;;;;;;18.80;99.90;;;;;;5949392;23;20128;-74
2021/09/18 11:22:59;;;;;;;;;;;18.80;99.90;;;;;;5953110;23;20093;-74
2021/09/18 11:25:35;;;;;;;;;;;18.80;99.90;;;;;;5927672;23;20436;-74
2021/09/18 11:28:04;;;;;;;;;;;18.80;99.90;;;;;;5948413;23;20062;-75
2021/09/18 11:30:50;;;;;;;;;;;18.80;99.90;;;;;;5951329;23;20095;-76
2021/09/18 11:33:23;;;;;;;;;;;18.80;99.90;;;;;;5948393;23;20523;-76
2021/09/18 11:35:59;;;;;;;;;;;18.80;99.90;;;;;;5951121;23;19992;-76
2021/09/18 11:38:32;;;;;;;;;;;18.80;99.90;;;;;;5952360;23;20096;-75
2021/09/18 11:41:04;;;;;;;;;;;18.80;99.90;;;;;;5956020;23;19981;-75
2021/09/18 11:43:30;;;;;;;;;;;18.80;99.90;;;;;;5953849;23;20084;-75
2021/09/18 11:45:55;;;;;;;;;;;18.90;99.90;;;;;;5952696;23;20197;-72
2021/09/18 11:48:22;;;;;;;;;;;18.90;99.90;;;;;;5927554;23;20217;-72
2021/09/18 11:50:48;;;;;;;;;;;19.00;99.90;;;;;;5955836;23;20468;-72
2021/09/18 11:53:14;;;;;;;;;;;19.00;99.90;;;;;;5953311;23;20136;-72
2021/09/18 11:55:42;;;;;;;;;;;19.10;99.90;;;;;;5950192;23;20097;-71
2021/09/18 11:58:15;;;;;;;;;;;19.10;99.90;;;;;;5946968;23;20079;-71
2021/09/18 12:00:45;;;;;;;;;;;19.10;99.90;;;;;;5951909;23;20098;-71
2021/09/18 12:03:10;;;;;;;;;;;19.10;99.90;;;;;;5955167;23;20111;-71
2021/09/18 12:05:36;;;;;;;;;;;19.20;99.90;;;;;;5953122;23;20066;-71
2021/09/18 12:08:06;;;;;;;;;;;19.20;99.90;;;;;;5952079;23;20089;-71
2021/09/18 12:10:31;;;;;;;;;;;19.10;99.90;;;;;;5953232;23;20091;-71
2021/09/18 12:12:58;;;;;;;;;;;19.10;99.90;;;;;;5953450;23;20230;-71
2021/09/18 12:15:27;;;;;;;;;;;19.00;99.90;;;;;;5953948;23;20551;-70
2021/09/18 12:17:52;;;;;;;;;;;19.00;99.90;;;;;;5955167;23;20078;-70
2021/09/18 12:20:18;;;;;;;;;;;18.90;99.90;;;;;;5955494;23;20016;-70
2021/09/18 12:22:44;;;;;;;;;;;18.90;99.90;;;;;;5953300;23;20050;-71
2021/09/18 12:25:09;;;;;;;;;;;18.90;99.90;;;;;;5933601;23;20138;-71
2021/09/18 12:27:36;;;;;;;;;;;18.90;99.90;;;;;;5955634;23;20089;-71
2021/09/18 12:30:02;;;;;;;;;;;18.90;99.90;;;;;;5952694;23;20102;-71
2021/09/18 12:32:27;;;;;;;;;;;18.80;99.90;;;;;;5954542;23;20065;-71
2021/09/18 12:34:55;;;;;;;;;;;18.80;99.90;;;;;;5954631;23;20068;-71
2021/09/18 12:37:32;;;;;;;;;;;18.80;99.90;;;;;;5954820;23;20021;-71
2021/09/18 12:40:08;;;;;;;;;;;18.80;99.90;;;;;;5954063;23;20081;-71
2021/09/18 12:42:33;;;;;;;;;;;18.80;99.90;;;;;;5955922;23;20088;-71
2021/09/18 12:44:59;;;;;;;;;;;18.80;99.90;;;;;;5956879;23;20178;-71
2021/09/18 12:47:24;;;;;;;;;;;18.80;99.90;;;;;;5972459;23;20110;-71
2021/09/18 12:49:50;;;;;;;;;;;18.80;99.90;;;;;;5971082;23;20090;-70
2021/09/18 12:52:15;;;;;;;;;;;18.90;99.90;;;;;;5957716;23;20094;-70
2021/09/18 12:54:42;;;;;;;;;;;18.90;99.90;;;;;;5953349;23;20073;-71
2021/09/18 12:57:08;;;;;;;;;;;18.90;99.90;;;;;;5948861;23;20432;-71
2021/09/18 12:59:43;;;;;;;;;;;18.90;99.90;;;;;;5952657;23;20116;-71
2021/09/18 13:02:09;;;;;;;;;;;19.00;99.90;;;;;;5954050;23;20463;-71
2021/09/18 13:04:35;;;;;;;;;;;19.00;99.90;;;;;;5955563;23;20004;-71
2021/09/18 13:07:02;;;;;;;;;;;19.00;99.90;;;;;;5951135;23;20481;-71
2021/09/18 13:09:29;;;;;;;;;;;19.00;99.90;;;;;;5954357;23;20087;-71
2021/09/18 13:11:59;;;;;;;;;;;19.10;99.90;;;;;;5953215;23;20055;-71
2021/09/18 13:14:32;;;;;;;;;;;19.10;99.90;;;;;;5956473;23;20099;-71
2021/09/18 13:16:57;;;;;;;;;;;19.10;99.90;;;;;;5951695;23;20726;-71
2021/09/18 13:19:23;;;;;;;;;;;19.20;99.90;;;;;;5927405;23;20107;-70
2021/09/18 13:21:48;;;;;;;;;;;19.20;99.90;;;;;;5922896;23;20638;-73
2021/09/18 13:24:14;;;;;;;;;;;19.30;99.90;;;;;;5950307;23;20093;-75
2021/09/18 13:26:39;;;;;;;;;;;19.30;99.90;;;;;;5923838;23;20146;-74
2021/09/18 13:29:05;;;;;;;;;;;19.30;99.90;;;;;;5947840;23;20047;-74
2021/09/18 13:31:31;;;;;;;;;;;19.40;99.90;;;;;;5948509;23;20448;-73
2021/09/18 13:33:56;;;;;;;;;;;19.40;99.90;;;;;;5949319;23;20101;-73
2021/09/18 13:36:22;;;;;;;;;;;19.50;99.90;;;;;;5947586;23;20127;-74
2021/09/18 13:38:47;;;;;;;;;;;19.60;99.90;;;;;;5942017;23;20141;-73
2021/09/18 13:41:13;;;;;;;;;;;19.80;99.90;;;;;;5964412;23;20106;-75
2021/09/18 13:43:39;;;;;;;;;;;19.90;99.90;;;;;;5953683;23;20070;-73
2021/09/18 13:46:04;;;;;;;;;;;20.10;99.90;;;;;;5946472;23;20116;-74
2021/09/18 13:48:30;;;;;;;;;;;20.30;99.90;;;;;;5946894;23;19990;-73
2021/09/18 13:50:55;;;;;;;;;;;20.40;99.90;;;;;;5947058;23;20061;-72
2021/09/18 13:53:20;;;;;;;;;;;20.40;99.90;;;;;;5949030;23;20158;-72
2021/09/18 13:55:47;;;;;;;;;;;20.50;99.90;;;;;;5945270;23;19981;-72
2021/09/18 13:58:13;;;;;;;;;;;20.50;99.90;;;;;;5947136;23;20194;-72
2021/09/18 14:00:38;;;;;;;;;;;20.50;99.90;;;;;;5922487;23;20057;-73
2021/09/18 14:03:04;;;;;;;;;;;20.40;99.90;;;;;;5945312;23;20091;-72
2021/09/18 14:05:29;;;;;;;;;;;20.30;99.90;;;;;;5943514;23;20509;-72
2021/09/18 14:07:55;;;;;;;;;;;20.30;99.90;;;;;;5944790;23;20114;-72
2021/09/18 14:10:20;;;;;;;;;;;20.20;99.90;;;;;;5948515;23;20007;-72
2021/09/18 14:12:46;;;;;;;;;;;20.20;99.90;;;;;;5948639;23;20132;-72
2021/09/18 14:15:11;;;;;;;;;;;20.10;99.90;;;;;;5947860;23;20123;-72
2021/09/18 14:17:37;;;;;;;;;;;20.10;99.90;;;;;;5945817;23;20479;-72
2021/09/18 14:20:03;;;;;;;;;;;20.00;99.90;;;;;;5943137;23;20516;-72